Flight Track Log - Related Links

Times and Time Zones

All times are in EDT time to prevent confusion due to time zone crossing. See the EJA951 flight status page for this flight to view local times or setup timezone preferences in your user account.

Time Position Orientation Groundspeed Altitude Reporting Facility
EDT Latitude Longitude Course Direction KTS MPH feet Rate Location/Type
Sun 02:14:07 PM 37.5833 -77.2500 38° Northeast 277 319 6,200  Level Potomac TRACON
Sun 02:15:22 PM 37.6689 -77.1528 42° Northeast 327 376 8,500 1,456 Climbing Washington Center
Sun 02:16:23 PM 37.7364 -77.0833 39° Northeast 315 362 9,500 1,512 Climbing Washington Center
Sun 02:17:25 PM 37.8083 -77.0086 39° Northeast 316 364 11,600 2,150 Climbing Washington Center
Sun 02:18:23 PM 37.8906 -76.9258 38° Northeast 348 400 13,800 1,815 Climbing Washington Center
Sun 02:19:24 PM 37.9728 -76.8272 43° Northeast 375 432 15,200 1,210 Climbing Washington Center
Sun 02:20:22 PM 38.0575 -76.7206 45° Northeast 405 466 16,200 915 Climbing Washington Center
Sun 02:21:22 PM 38.1522 -76.6189 40° Northeast 427 491 17,000 397 Climbing Washington Center
Sun 02:22:23 PM 38.2489 -76.5144 40° Northeast 442 509 17,000  Level Washington Center
Sun 02:23:24 PM 38.3350 -76.4228 40° Northeast 442 509 17,000  Level Washington Center
Sun 02:24:25 PM 38.4317 -76.3178 40° Northeast 442 509 17,000 -1,008 Level Washington Center
Sun 02:25:23 PM 38.5261 -76.2128 41° Northeast 447 514 15,000 -1,866 Descending Washington Center
Sun 02:26:24 PM 38.6286 -76.1019 40° Northeast 441 507 13,300 -992 Descending Washington Center
Sun 02:27:24 PM 38.7125 -76.0094 41° Northeast 418 481 13,000 -150 Descending Washington Center
Sun 02:28:24 PM 38.8025 -75.9139 40° Northeast 411 473 13,000  Level Washington Center
Sun 02:29:22 PM 38.8756 -75.7889 53° Northeast 421 484 13,000  Level Washington Center
Sun 02:30:22 PM 38.9467 -75.6717 52° Northeast 443 510 13,000 -37 Level Washington Center
Sun 02:32:04 PM 39.1167 -75.5000 38° Northeast 411 473 12,900 -222 Descending Philadelphia TRACON
Sun 02:33:04 PM 39.2167 -75.5167 353° North 332 382 12,400 -450 Descending Philadelphia TRACON
Sun 02:34:04 PM 39.3000 -75.5333 351° North 331 381 12,000 -200 Descending Philadelphia TRACON
Sun 02:35:04 PM 39.3833 -75.5500 351° North 319 367 12,000  Level Philadelphia TRACON
Sun 02:36:04 PM 39.4500 -75.4667 44° Northeast 354 407 12,000  Level Philadelphia TRACON
Sun 02:37:04 PM 39.5167 -75.3833 44° Northeast 350 403 12,000 -53 Level Philadelphia TRACON
Sun 02:37:58 PM 39.5833 -75.3000 44° Northeast 352 405 11,900 -737 Descending Philadelphia TRACON
Sun 02:38:58 PM 39.6500 -75.2000 49° Northeast 326 375 10,600 -950 Descending Philadelphia TRACON
Sun 02:39:58 PM 39.7000 -75.1167 52° Northeast 331 381 10,000 -900 Descending Philadelphia TRACON
Sun 02:40:58 PM 39.7667 -75.0333 44° Northeast 316 364 8,800 -952 Descending Philadelphia TRACON
Sun 02:42:04 PM 39.8333 -74.9500 44° Northeast 308 354 8,000 -1,048 Descending Philadelphia TRACON
Sun 02:43:04 PM 39.9000 -74.9000 30° Northeast 262 302 6,600 -1,632 Descending Philadelphia TRACON
Sun 02:43:58 PM 39.9500 -74.8833 14° North 227 261 4,900 -1,500 Descending Philadelphia TRACON
Sun 02:45:04 PM 40.0000 -74.8833 360° North 172 198 3,600 -1,286 Descending Philadelphia TRACON
Sun 02:46:04 PM 40.0167 -74.9333 294° West 141 162 2,200 -1,350 Descending Philadelphia TRACON
Sun 02:47:04 PM 40.0500 -74.9833 311° West 125 144 900 -1,300 Descending Philadelphia TRACON
Sun 02:49:00 PM 40.0667 -75.0000 303° West  Level FlightAware Approximate
Sun 02:56:00 PM 40.0819 -75.0106 303° West  Level Estimated

Login

Don't have an account? Register now (free) for customized features, flight alerts, and more!